Time;durP1;ratioP1;P1;durP2;ratioP2;P2;SDS_P1;SDS_P2;PMS_P1;PMS_P2;Temp;Humidity;BMP_temperature;BMP_pressure;BME280_temperature;BME280_humidity;BME280_pressure;Samples;Min_cycle;Max_cycle;Signal;HPM_P1;HPM_P2
2023/02/19 03:40:27;;;;;;;;;;;;;;;;;;;;;
2023/02/19 04:00:48;;;;;;;;;;;;;;;;;;;;;
2023/02/19 04:04:25;;;;;;;7.40;2.75;;;13.70;94.30;;;;;;7414296;19;20822;-82
2023/02/19 04:55:55;;;;;;;;;;;;;;;;;;;;;
2023/02/19 06:43:40;;;;;;;5.95;1.63;;;13.80;91.20;;;;;;7413533;19;20708;-82
2023/02/19 07:06:13;;;;;;;7.25;2.10;;;13.80;91.20;;;;;;5129636;19;27891845;-81
2023/02/19 07:12:24;;;;;;;4.63;2.47;;;13.60;90.10;;;;;;7435766;19;20011;-83
2023/02/19 07:21:41;;;;;;;;;;;;;;;;;;;;;
2023/02/19 07:28:15;;;;;;;13.15;2.60;;;13.70;90.20;;;;;;7433853;19;20021;-81
2023/02/19 07:54:40;;;;;;;;;;;;;;;;;;;;;
2023/02/19 08:00:38;;;;;;;9.73;2.58;;;13.70;90.10;;;;;;7312155;19;2004560;-81
2023/02/19 08:03:27;;;;;;;8.63;2.45;;;13.60;89.80;;;;;;7434991;19;20036;-81
2023/02/19 08:06:05;;;;;;;10.75;2.78;;;13.60;89.80;;;;;;7414802;19;20016;-81
2023/02/19 08:08:50;;;;;;;13.05;2.80;;;13.50;90.10;;;;;;7413870;19;20232;-81
2023/02/19 08:14:10;;;;;;;8.73;2.65;;;13.50;91.60;;;;;;7415164;19;20010;-81
2023/02/19 08:16:45;;;;;;;17.52;3.25;;;13.30;91.00;;;;;;7412441;19;20002;-81
2023/02/19 08:19:24;;;;;;;36.67;3.85;;;13.60;90.60;;;;;;7411799;19;20006;-81
2023/02/19 08:22:22;;;;;;;126.97;6.38;;;13.80;90.10;;;;;;7415477;19;19999;-81
2023/02/19 08:25:03;;;;;;;12.60;3.45;;;13.70;90.60;;;;;;7412536;19;20022;-81
2023/02/19 08:27:47;;;;;;;11.43;2.40;;;13.70;90.20;;;;;;7411626;19;20242;-82
2023/02/19 08:30:37;;;;;;;6.53;2.20;;;13.70;88.60;;;;;;7435536;19;20014;-81
2023/02/19 08:33:29;;;;;;;9.80;2.05;;;13.80;88.20;;;;;;7416947;19;20016;-82
2023/02/19 08:36:21;;;;;;;14.90;2.28;;;13.80;87.20;;;;;;7422048;19;20231;-81
2023/02/19 08:39:04;;;;;;;13.75;2.60;;;13.80;87.30;;;;;;7422312;19;20050;-81
2023/02/19 08:41:37;;;;;;;10.02;2.15;;;13.80;87.50;;;;;;7415993;19;20017;-81
2023/02/19 08:44:29;;;;;;;11.50;2.15;;;13.90;87.00;;;;;;7414811;19;20260;-81
2023/02/19 08:47:12;;;;;;;11.40;2.13;;;13.90;86.70;;;;;;7414176;19;20027;-81
2023/02/19 08:49:40;;;;;;;14.00;2.47;;;14.20;86.50;;;;;;7412089;19;20370;-80
2023/02/19 08:52:09;;;;;;;11.30;2.42;;;14.10;86.20;;;;;;7389823;19;20024;-80
2023/02/19 08:54:48;;;;;;;12.27;2.60;;;14.20;86.40;;;;;;7387439;19;20007;-80
2023/02/19 08:57:18;;;;;;;13.68;2.47;;;13.80;86.40;;;;;;7408627;19;20017;-80
2023/02/19 08:59:50;;;;;;;13.88;2.50;;;14.00;87.10;;;;;;7384340;19;20250;-80
2023/02/19 09:02:30;;;;;;;15.27;2.50;;;13.90;86.40;;;;;;7386062;19;20010;-81
2023/02/19 09:08:07;;;;;;;18.50;2.47;;;13.80;86.90;;;;;;7384740;19;20351;-81
2023/02/19 09:18:15;;;;;;;;;;;;;;;;;;;;;
2023/02/19 09:20:59;;;;;;;10.90;2.30;;;13.90;88.00;;;;;;7382472;19;20013;-82
2023/02/19 09:27:03;;;;;;;11.30;2.80;;;14.20;87.20;;;;;;7258512;19;2004287;-81
2023/02/19 09:33:25;;;;;;;12.90;2.50;;;14.20;87.30;;;;;;7383000;19;20006;-81
2023/02/19 10:08:01;;;;;;;12.93;2.58;;;14.20;83.10;;;;;;7420083;19;20063;-82
2023/02/19 10:10:49;;;;;;;;;;;;;;;;;;;;;
2023/02/19 10:13:33;;;;;;;14.38;2.53;;;14.10;83.50;;;;;;7418751;19;20484;-85
2023/02/19 11:39:43;;;;;;;12.25;4.40;;;14.70;82.70;;;;;;7408460;19;20013;-85
2023/02/19 12:24:59;;;;;;;;;;;;;;;;;;;;;
2023/02/19 15:23:08;;;;;;;19.87;7.23;;;16.60;73.20;;;;;;5643789;19;19794746;-82
2023/02/19 16:33:53;;;;;;;;;;;;;;;;;;;;;
2023/02/19 19:20:02;;;;;;;;;;;;;;;;;;;;;
2023/02/19 19:22:52;;;;;;;;;;;;;;;;;;;;;
2023/02/19 19:28:43;;;;;;;28.60;8.82;;;13.40;82.20;;;;;;7441549;19;20015;-81
2023/02/19 19:31:33;;;;;;;;;;;;;;;;;;;;;
2023/02/19 19:34:48;;;;;;;;;;;;;;;;;;;;;
2023/02/19 19:38:29;;;;;;;;;;;;;;;;;;;;;
2023/02/19 19:44:14;;;;;;;28.33;10.65;;;13.40;82.50;;;;;;7416258;19;20007;-82
2023/02/19 19:46:47;;;;;;;30.23;11.48;;;13.40;82.40;;;;;;7418885;19;20044;-83
2023/02/19 19:49:19;;;;;;;34.90;13.60;;;13.30;82.00;;;;;;7418007;19;20116;-81
2023/02/19 19:51:49;;;;;;;38.40;12.35;;;13.30;82.40;;;;;;7420333;19;20094;-81
2023/02/19 19:54:18;;;;;;;28.83;11.52;;;13.20;82.70;;;;;;7441378;19;20382;-80
2023/02/19 19:56:49;;;;;;;38.28;17.17;;;13.20;82.40;;;;;;7418492;19;20016;-80
2023/02/19 19:59:21;;;;;;;46.67;20.05;;;13.20;82.20;;;;;;7418237;19;20007;-81
2023/02/19 20:05:56;;;;;;;;;;;;;;;;;;;;;
2023/02/19 20:29:09;;;;;;;43.83;17.35;;;13.10;81.90;;;;;;7419157;19;20010;-83
2023/02/19 20:42:12;;;;;;;32.58;13.10;;;12.90;82.10;;;;;;7419117;19;20331;-84
2023/02/19 20:45:05;;;;;;;40.58;15.43;;;12.90;81.90;;;;;;7422338;19;20032;-83
2023/02/19 21:05:08;;;;;;;38.00;15.30;;;12.80;82.80;;;;;;6322880;19;21757986;-84
2023/02/19 21:07:58;;;;;;;33.47;13.80;;;12.60;82.40;;;;;;7420772;19;20024;-84
2023/02/19 21:10:42;;;;;;;35.72;13.43;;;12.70;82.10;;;;;;7421776;19;20023;-85
2023/02/19 21:13:24;;;;;;;40.25;13.85;;;12.70;82.00;;;;;;7426804;19;20035;-84
2023/02/19 21:16:33;;;;;;;29.67;13.77;;;12.60;82.20;;;;;;7425066;19;20031;-84
2023/02/19 21:19:24;;;;;;;35.55;14.75;;;12.60;82.70;;;;;;7425903;19;20010;-84
2023/02/19 21:45:08;;;;;;;34.07;14.30;;;12.50;82.90;;;;;;6490820;19;5526146;-83
2023/02/19 21:54:27;;;;;;;41.30;15.45;;;12.30;82.10;;;;;;7444783;19;20251;-83
2023/02/19 21:57:17;;;;;;;46.83;18.42;;;12.20;82.30;;;;;;7421071;19;19998;-84
2023/02/19 21:59:49;;;;;;;35.38;14.70;;;12.10;82.90;;;;;;7424639;19;20047;-83
2023/02/19 22:02:21;;;;;;;49.70;17.17;;;12.10;83.20;;;;;;7423929;19;20017;-83
2023/02/19 22:05:17;;;;;;;34.45;15.23;;;12.10;83.20;;;;;;7423070;19;20011;-84
2023/02/19 22:08:16;;;;;;;40.55;16.33;;;12.10;83.20;;;;;;7422176;19;20002;-84
2023/02/19 22:13:30;;;;;;;36.67;15.60;;;12.00;83.30;;;;;;7418978;19;20020;-82
2023/02/19 22:15:58;;;;;;;38.83;13.45;;;12.00;83.50;;;;;;7422771;19;20006;-81
2023/02/19 22:18:30;;;;;;;23.83;12.13;;;12.00;83.40;;;;;;7444146;19;20014;-81
2023/02/19 22:20:59;;;;;;;33.17;12.88;;;12.00;83.30;;;;;;7420278;19;20007;-82
2023/02/19 22:23:27;;;;;;;36.53;12.85;;;12.00;83.20;;;;;;7417959;19;20002;-82
2023/02/19 22:25:56;;;;;;;35.22;13.02;;;12.00;82.80;;;;;;7417402;19;20030;-81
2023/02/19 22:28:25;;;;;;;42.50;17.40;;;12.00;82.60;;;;;;7417806;19;20006;-81
2023/02/19 22:30:54;;;;;;;44.15;17.45;;;12.00;82.20;;;;;;7416691;19;20003;-81
2023/02/19 22:33:23;;;;;;;31.30;13.13;;;12.00;82.30;;;;;;7438985;19;20010;-81
2023/02/19 22:35:54;;;;;;;42.30;16.85;;;12.00;82.30;;;;;;7418944;19;20010;-81
2023/02/19 22:38:23;;;;;;;43.80;16.98;;;12.00;82.50;;;;;;7417690;19;20006;-81
2023/02/19 22:40:52;;;;;;;43.00;18.60;;;12.00;82.50;;;;;;7418419;19;20365;-81
2023/02/19 22:43:20;;;;;;;48.90;19.33;;;12.00;82.50;;;;;;7414904;19;20007;-81
2023/02/19 22:45:49;;;;;;;50.33;19.17;;;11.80;82.80;;;;;;7386147;19;20013;-81
2023/02/19 22:48:18;;;;;;;38.38;17.63;;;11.80;83.00;;;;;;7411098;19;20042;-80
2023/02/19 22:50:47;;;;;;;44.83;17.17;;;11.70;83.30;;;;;;7387994;19;20007;-81
2023/02/19 22:53:18;;;;;;;43.53;15.98;;;11.70;83.30;;;;;;7386979;19;20007;-80
2023/02/19 22:55:47;;;;;;;;;;;11.60;83.30;;;;;;7388334;19;20026;-81
2023/02/19 22:58:15;;;;;;;30.48;13.80;;;11.70;84.40;;;;;;7388651;19;19911;-81
2023/02/19 23:00:44;;;;;;;30.23;12.52;;;11.70;84.70;;;;;;7388600;19;20007;-81
2023/02/19 23:03:13;;;;;;;37.53;13.07;;;11.70;85.20;;;;;;7409063;19;20074;-81
2023/02/19 23:05:42;;;;;;;30.15;13.43;;;11.60;84.50;;;;;;7387451;19;20020;-81
2023/02/19 23:08:11;;;;;;;39.92;14.00;;;11.70;84.70;;;;;;7386423;19;20487;-80
2023/02/19 23:10:42;;;;;;;32.03;13.32;;;11.70;84.70;;;;;;7386711;19;20006;-81
2023/02/19 23:13:10;;;;;;;;;;;11.70;84.50;;;;;;7389257;19;20063;-81
2023/02/19 23:15:39;;;;;;;37.90;17.85;;;11.70;84.70;;;;;;7387920;19;20150;-81
2023/02/19 23:18:08;;;;;;;38.92;17.00;;;11.70;84.30;;;;;;7406489;19;20015;-80
2023/02/19 23:20:37;;;;;;;32.70;15.73;;;11.70;84.30;;;;;;7385945;19;20018;-81
2023/02/19 23:23:05;;;;;;;;;;;11.70;84.30;;;;;;7386991;19;20006;-80
2023/02/19 23:25:34;;;;;;;43.92;17.02;;;11.70;83.60;;;;;;7385536;19;19903;-80
2023/02/19 23:28:06;;;;;;;35.92;14.40;;;11.60;83.10;;;;;;7384624;19;20030;-80
2023/02/19 23:30:35;;;;;;;39.58;14.63;;;11.50;82.90;;;;;;7383628;19;20010;-80
2023/02/19 23:33:04;;;;;;;30.10;14.02;;;11.50;82.70;;;;;;7406934;19;20019;-80
2023/02/19 23:35:32;;;;;;;30.23;13.00;;;11.50;82.50;;;;;;7385809;19;20267;-80
2023/02/19 23:38:01;;;;;;;35.15;13.48;;;11.50;82.10;;;;;;7385301;19;20006;-80
2023/02/19 23:40:30;;;;;;;40.08;14.63;;;11.60;82.50;;;;;;7384585;19;20007;-80
2023/02/19 23:42:59;;;;;;;35.20;14.80;;;11.50;82.50;;;;;;7387044;19;20006;-80
2023/02/19 23:45:31;;;;;;;30.10;14.20;;;11.50;82.30;;;;;;7405769;19;20014;-80
2023/02/19 23:47:59;;;;;;;35.72;14.70;;;11.50;82.10;;;;;;7386089;19;20422;-80
2023/02/19 23:50:28;;;;;;;36.40;14.13;;;11.60;81.90;;;;;;7386571;19;20010;-80
2023/02/19 23:52:58;;;;;;;38.10;15.95;;;11.50;81.80;;;;;;7386652;19;20003;-80
2023/02/19 23:55:27;;;;;;;38.20;15.38;;;11.40;81.90;;;;;;7387730;19;20002;-80
2023/02/19 23:57:56;;;;;;;39.63;14.88;;;11.40;82.10;;;;;;7383806;19;20007;-80
